CST,Max TemperatureF,Mean TemperatureF,Min TemperatureF,Max Dew PointF,MeanDew PointF,Min DewpointF,Max Humidity, Mean Humidity, Min Humidity, Max Sea Level PressureIn, Mean Sea Level PressureIn, Min Sea Level PressureIn, Max VisibilityMiles, Mean VisibilityMiles, Min VisibilityMiles, Max Wind SpeedMPH, Mean Wind SpeedMPH, Max Gust SpeedMPH,PrecipitationIn, CloudCover, Events, WindDirDegrees
2014-1-1,8,6,3,2,-1,-3,87,78,69,30.43,30.31,30.23,10,6,1,18,13,22,0.01,8,Snow,28
2014-1-2,6,-3,-13,-2,-6,-16,86,76,66,30.53,30.46,30.33,10,10,9,20,11,22,0.00,3,,341
2014-1-3,32,10,-13,22,4,-17,87,75,63,30.48,30.05,29.64,10,10,10,25,13,33,0.00,2,,171
2014-1-4,33,20,6,27,11,-2,85,74,63,30.24,29.94,29.63,10,10,6,31,20,38,T,5,,327
2014-1-5,6,-3,-12,-2,-14,-24,76,61,45,30.48,30.38,30.25,10,10,10,32,22,43,0.00,4,,330
2014-1-6,-4,-9,-15,-14,-20,-25,71,63,54,30.49,30.42,30.34,10,10,6,28,16,36,0.00,3,,299
2014-1-7,12,1,-10,1,-5,-15,80,72,63,30.37,30.26,30.15,10,10,10,10,4,12,0.00,5,,127
2014-1-8,14,6,-2,2,-1,-4,87,73,58,30.52,30.45,30.31,10,10,10,9,4,11,0.00,2,,50
2014-1-9,21,10,-2,17,6,-6,88,81,73,30.48,30.24,30.01,10,8,0,13,6,17,0.00,6,,139
2014-1-10,32,27,21,32,28,19,100,92,84,30.02,29.71,29.54,7,2,0,13,6,17,T,8,Fog-Snow,163
2014-1-11,31,24,16,30,23,15,100,88,75,29.84,29.71,29.54,10,8,4,22,11,28,0.00,4,,283
2014-1-12,42,29,16,34,28,17,92,76,60,29.76,29.58,29.48,10,10,7,17,9,24,0.00,2,,217
2014-1-13,44,38,31,30,27,23,82,68,54,29.79,29.71,29.60,10,10,8,21,11,26,0.00,4,,284
2014-1-14,40,27,14,33,18,5,89,74,58,30.19,29.92,29.58,10,8,0,39,23,50,0.01,7,Fog-Snow,313
2014-1-15,30,21,11,19,8,4,70,60,50,30.23,30.05,29.65,10,10,4,25,13,32,T,6,Snow,263
2014-1-16,37,22,7,28,14,-3,81,66,51,29.97,29.74,29.58,10,6,0,36,22,49,0.03,7,Fog-Snow,324
2014-1-17,23,13,3,10,2,-4,83,69,54,30.11,30.03,29.93,10,10,7,28,15,36,0.00,4,,308
2014-1-18,37,23,8,32,20,7,88,75,62,30.05,29.72,29.49,10,9,2,32,14,41,0.01,6,Snow,284
2014-1-19,50,33,15,32,24,13,84,65,46,29.95,29.75,29.59,10,10,10,21,15,27,0.00,0,,260
2014-1-20,40,22,4,32,18,-5,92,78,64,30.40,30.07,29.80,10,6,1,36,15,43,0.04,6,Snow,332
2014-1-21,11,2,-7,4,-6,-14,80,72,63,30.51,30.36,30.10,10,10,9,25,10,33,T,4,Snow,240
2014-1-22,18,7,-5,11,1,-13,75,68,61,30.56,30.19,29.98,10,8,1,31,19,39,T,6,Snow,322
2014-1-23,7,0,-8,-4,-10,-15,79,69,59,30.83,30.69,30.51,10,10,10,24,13,32,0.00,1,,305
2014-1-24,40,22,3,34,16,-5,89,67,44,30.45,29.86,29.58,10,10,10,28,18,36,T,6,,249
2014-1-25,36,25,14,29,6,-9,82,55,28,30.02,29.84,29.54,10,10,7,37,17,47,T,4,Snow,317
2014-1-26,45,23,1,30,15,-12,78,62,46,30.23,29.69,29.40,10,9,2,41,23,55,T,6,Snow,313
2014-1-27,4,-1,-7,-9,-13,-16,75,60,44,30.54,30.43,30.20,10,10,10,30,14,38,0.00,1,,316
2014-1-28,15,3,-9,-7,-10,-14,75,54,33,30.52,30.41,30.28,10,10,5,22,10,28,0.00,0,,273
2014-1-29,37,18,-2,11,2,-8,72,49,26,30.27,30.01,29.69,10,10,10,26,13,32,0.00,0,,215
2014-1-30,40,24,7,25,13,-2,69,52,35,30.10,29.70,29.49,10,8,0,32,17,40,T,5,Fog-Snow,336
2014-1-31,18,12,5,5,-1,-5,76,61,46,30.25,30.15,30.01,10,9,2,22,6,27,T,4,Snow,60